Time;durP1;ratioP1;P1;durP2;ratioP2;P2;SDS_P1;SDS_P2;PMS_P1;PMS_P2;Temp;Humidity;BMP_temperature;BMP_pressure;BME280_temperature;BME280_humidity;BME280_pressure;Samples;Min_cycle;Max_cycle;Signal;HPM_P1;HPM_P2
2022/11/07 00:00:21;;;;;;;;;;;;;;;16.73;48.75;101192.25;5057560;28;1160;-61
2022/11/07 00:02:47;;;;;;;;;;;;;;;16.45;48.25;101190.69;5057606;28;1315;-61
2022/11/07 00:05:12;;;;;;;;;;;;;;;16.36;47.67;101182.94;5057772;28;1986;-61
2022/11/07 00:07:38;;;;;;;;;;;;;;;17.15;48.46;101182.38;5057499;28;1760;-61
2022/11/07 00:10:04;;;;;;;;;;;;;;;16.73;48.91;101189.50;5040081;28;1199;-62
2022/11/07 00:12:29;;;;;;;;;;;;;;;16.48;48.16;101185.50;5057314;28;1170;-61
2022/11/07 00:14:55;;;;;;;;;;;;;;;17.14;49.13;101172.47;5056880;28;1238;-62
2022/11/07 00:17:20;;;;;;;;;;;;;;;16.69;48.85;101189.22;5057181;28;1112;-62
2022/11/07 00:19:46;;;;;;;;;;;;;;;16.51;48.10;101184.13;5057006;28;873;-61
2022/11/07 00:22:12;;;;;;;;;;;;;;;16.43;47.33;101183.53;5057423;28;1479;-61
2022/11/07 00:24:37;;;;;;;;;;;;;;;16.26;47.24;101188.34;5057365;28;1905;-61
2022/11/07 00:27:03;;;;;;;;;;;;;;;16.18;46.71;101181.41;5057474;28;1159;-61
2022/11/07 00:29:28;;;;;;;;;;;;;;;16.21;46.28;101191.03;5056928;28;1115;-61
2022/11/07 00:31:54;;;;;;;;;;;;;;;16.49;47.10;101181.66;5057653;28;897;-63
2022/11/07 00:34:19;;;;;;;;;;;;;;;16.65;48.33;101195.50;5057170;28;1100;-61
2022/11/07 00:36:44;;;;;;;;;;;;;;;16.37;48.09;101189.25;5057240;28;1227;-62
2022/11/07 00:39:10;;;;;;;;;;;;;;;17.05;48.22;101189.44;5056649;28;2575;-62
2022/11/07 00:41:36;;;;;;;;;;;;;;;16.77;49.08;101194.22;5056779;28;1218;-60
2022/11/07 00:44:01;;;;;;;;;;;;;;;16.53;48.14;101188.28;5056266;28;1969;-61
2022/11/07 00:46:27;;;;;;;;;;;;;;;17.21;49.20;101190.38;5056233;28;1112;-61
2022/11/07 00:48:52;;;;;;;;;;;;;;;16.69;48.93;101189.22;5056650;28;1150;-60
2022/11/07 00:51:19;;;;;;;;;;;;;;;16.50;48.23;101185.25;5057245;28;1160;-60
2022/11/07 00:53:44;;;;;;;;;;;;;;;16.38;47.40;101193.66;5056930;28;1199;-60
2022/11/07 00:56:13;;;;;;;;;;;;;;;16.32;47.23;101198.25;5056443;28;891;-61
2022/11/07 00:58:40;;;;;;;;;;;;;;;17.17;48.75;101193.94;5056437;28;1187;-60
2022/11/07 01:01:07;;;;;;;;;;;;;;;16.58;48.93;101196.56;5056287;28;1124;-60
2022/11/07 01:06:16;;;;;;;;;;;;;;;17.31;49.02;101197.03;5056440;28;1902;-61
2022/11/07 01:08:42;;;;;;;;;;;;;;;16.68;49.46;101197.72;5056249;28;1766;-61
2022/11/07 01:11:08;;;;;;;;;;;;;;;16.49;48.32;101186.31;5056274;28;1131;-61
2022/11/07 01:13:33;;;;;;;;;;;;;;;16.48;47.26;101188.25;5056506;28;1174;-61
2022/11/07 01:15:59;;;;;;;;;;;;;;;17.06;49.05;101191.13;5056356;28;1151;-60
2022/11/07 01:18:24;;;;;;;;;;;;;;;16.60;48.88;101194.34;5056195;28;1120;-60
2022/11/07 01:20:50;;;;;;;;;;;;;;;16.48;48.10;101193.75;5056540;28;954;-61
2022/11/07 01:23:15;;;;;;;;;;;;;;;16.45;47.14;101193.44;5056194;28;1120;-60
2022/11/07 01:25:41;;;;;;;;;;;;;;;16.23;47.09;101199.84;5056214;28;1910;-61
2022/11/07 01:28:06;;;;;;;;;;;;;;;17.07;48.26;101198.28;5056234;28;1194;-60
2022/11/07 01:30:32;;;;;;;;;;;;;;;16.57;48.33;101194.06;5055886;28;1092;-62
2022/11/07 01:32:57;;;;;;;;;;;;;;;16.40;47.73;101189.56;5056323;28;1131;-62
2022/11/07 01:35:23;;;;;;;;;;;;;;;16.94;48.75;101193.25;5055942;28;1147;-60
2022/11/07 01:37:48;;;;;;;;;;;;;;;16.60;48.42;101193.53;5056324;28;2367;-60
2022/11/07 01:40:14;;;;;;;;;;;;;;;18.00;49.14;101198.59;5056151;28;1116;-61
2022/11/07 01:42:39;;;;;;;;;;;;;;;17.20;50.08;101191.47;5056375;28;1194;-61
2022/11/07 01:45:05;;;;;;;;;;;;;;;16.82;49.20;101189.88;5055692;28;1994;-61
2022/11/07 01:47:32;;;;;;;;;;;;;;;16.61;48.58;101197.94;5055738;28;1182;-61
2022/11/07 01:49:57;;;;;;;;;;;;;;;16.62;47.61;101196.88;5038417;28;1120;-61
2022/11/07 01:52:24;;;;;;;;;;;;;;;16.55;46.94;101196.25;5055826;28;1172;-61
2022/11/07 01:54:53;;;;;;;;;;;;;;;16.36;46.83;101202.13;5038043;28;1311;-61
2022/11/07 01:57:23;;;;;;;;;;;;;;;16.27;46.39;101190.00;5041010;28;927;-60
2022/11/07 01:59:48;;;;;;;;;;;;;;;16.20;46.21;101198.44;5042354;28;1187;-61
2022/11/07 02:02:14;;;;;;;;;;;;;;;17.10;47.63;101197.72;5059669;28;1080;-61
2022/11/07 02:04:39;;;;;;;;;;;;;;;16.53;48.36;101195.69;5060074;28;1897;-61
2022/11/07 02:07:25;;;;;;;;;;;;;;;16.41;47.62;101202.19;5041688;28;2228;-62
2022/11/07 02:09:51;;;;;;;;;;;;;;;16.63;47.81;101200.44;5059347;28;1292;-62
2022/11/07 02:12:16;;;;;;;;;;;;;;;16.76;48.74;101200.00;5059548;28;1148;-62
2022/11/07 02:14:42;;;;;;;;;;;;;;;16.42;48.25;101208.50;5041913;28;1152;-62
2022/11/07 02:17:08;;;;;;;;;;;;;;;16.29;47.68;101190.56;5059754;28;1187;-62
2022/11/07 02:19:33;;;;;;;;;;;;;;;17.33;48.34;101200.31;5059755;28;1148;-61
2022/11/07 02:22:01;;;;;;;;;;;;;;;16.66;48.78;101194.41;5059918;28;1160;-61
2022/11/07 02:24:33;;;;;;;;;;;;;;;16.48;48.18;101201.97;5059293;28;1976;-61
2022/11/07 02:27:00;;;;;;;;;;;;;;;16.46;46.94;101200.59;5041859;28;1144;-61
2022/11/07 02:29:25;;;;;;;;;;;;;;;16.98;48.60;101212.78;5041206;28;1128;-61
2022/11/07 02:32:03;;;;;;;;;;;;;;;16.57;48.48;101200.38;5041391;28;1203;-61
2022/11/07 02:34:28;;;;;;;;;;;;;;;16.36;47.77;101207.63;5059450;28;1097;-61
2022/11/07 02:36:54;;;;;;;;;;;;;;;17.12;48.53;101205.69;5059148;28;2419;-61
2022/11/07 02:39:19;;;;;;;;;;;;;;;16.69;48.43;101208.44;5041799;28;1206;-61
2022/11/07 02:41:45;;;;;;;;;;;;;;;16.42;48.11;101206.59;5059574;28;1175;-61
2022/11/07 02:44:10;;;;;;;;;;;;;;;16.44;46.91;101206.34;5041164;28;1910;-61
2022/11/07 02:46:36;;;;;;;;;;;;;;;17.02;48.40;101203.72;5058844;28;1159;-61
2022/11/07 02:49:01;;;;;;;;;;;;;;;16.58;47.94;101206.72;5041084;28;1183;-61
2022/11/07 02:51:27;;;;;;;;;;;;;;;16.46;47.39;101203.31;5059359;28;1416;-61
2022/11/07 02:53:52;;;;;;;;;;;;;;;17.34;48.33;101207.47;5058741;28;1139;-59
2022/11/07 02:56:18;;;;;;;;;;;;;;;16.68;48.68;101211.47;5058439;28;1389;-60
2022/11/07 02:58:43;;;;;;;;;;;;;;;16.55;47.96;101207.22;5058567;28;1132;-60
2022/11/07 03:01:09;;;;;;;;;;;;;;;16.60;47.65;101204.53;5058739;28;1114;-60
2022/11/07 03:03:35;;;;;;;;;;;;;;;17.10;48.88;101203.22;5058697;28;1286;-60
2022/11/07 03:06:00;;;;;;;;;;;;;;;16.66;48.80;101208.97;5041106;28;1971;-59
2022/11/07 03:08:26;;;;;;;;;;;;;;;16.47;47.99;101205.00;5057929;28;2272;-59
2022/11/07 03:10:51;;;;;;;;;;;;;;;16.40;47.16;101211.50;5058603;28;1194;-59
2022/11/07 03:13:17;;;;;;;;;;;;;;;16.30;46.80;101216.91;5058490;28;1084;-59
2022/11/07 03:15:42;;;;;;;;;;;;;;;17.04;47.61;101223.53;5058790;28;1199;-61
2022/11/07 03:18:07;;;;;;;;;;;;;;;16.72;48.45;101209.84;5058874;28;1151;-61
2022/11/07 03:20:33;;;;;;;;;;;;;;;16.48;47.84;101201.97;5058203;28;1175;-62
2022/11/07 03:22:58;;;;;;;;;;;;;;;17.38;48.50;101203.91;5040779;28;1188;-61
2022/11/07 03:25:24;;;;;;;;;;;;;;;16.80;48.74;101214.00;5058607;28;1910;-61
2022/11/07 03:27:49;;;;;;;;;;;;;;;16.54;48.07;101214.66;5058488;28;1539;-61
2022/11/07 03:30:15;;;;;;;;;;;;;;;16.50;47.44;101226.41;5058559;28;1160;-61
2022/11/07 03:32:40;;;;;;;;;;;;;;;17.01;48.86;101229.56;5058609;28;1008;-60
2022/11/07 03:35:06;;;;;;;;;;;;;;;16.63;48.30;101225.97;5058529;28;1132;-60
2022/11/07 03:37:31;;;;;;;;;;;;;;;16.45;47.78;101237.34;5057735;28;1852;-64
2022/11/07 03:39:56;;;;;;;;;;;;;;;16.30;47.32;101225.16;5058474;28;1080;-62
2022/11/07 03:42:22;;;;;;;;;;;;;;;17.06;47.97;101224.09;5058065;28;1147;-61
2022/11/07 03:44:47;;;;;;;;;;;;;;;16.54;48.34;101222.88;5057855;28;1987;-62
2022/11/07 03:47:13;;;;;;;;;;;;;;;16.50;47.32;101223.69;5058244;28;1097;-61
2022/11/07 03:49:38;;;;;;;;;;;;;;;16.40;47.00;101227.16;5057989;28;1167;-62
2022/11/07 03:52:04;;;;;;;;;;;;;;;16.17;46.72;101229.16;5057812;28;1218;-60
2022/11/07 03:54:29;;;;;;;;;;;;;;;16.77;47.27;101221.69;5057673;28;1229;-60
2022/11/07 03:56:54;;;;;;;;;;;;;;;16.74;48.53;101224.13;5057642;28;907;-62
2022/11/07 03:59:20;;;;;;;;;;;;;;;16.43;48.10;101221.97;5057749;28;1128;-61
2022/11/07 04:01:45;;;;;;;;;;;;;;;16.35;47.28;101218.88;5057737;28;1145;-62
2022/11/07 04:04:11;;;;;;;;;;;;;;;16.19;46.88;101220.66;5057790;28;1909;-60
2022/11/07 04:06:37;;;;;;;;;;;;;;;17.18;47.43;101228.53;5057586;28;1116;-61
2022/11/07 04:09:02;;;;;;;;;;;;;;;16.53;48.50;101217.66;5057345;28;1797;-61
2022/11/07 04:19:39;;;;;;;;;;;;;;;16.96;48.06;101224.03;5044227;28;1128;-62
2022/11/07 04:22:05;;;;;;;;;;;;;;;16.44;48.34;101222.81;5056811;28;922;-59
2022/11/07 04:24:30;;;;;;;;;;;;;;;16.67;48.42;101216.09;5057279;28;1905;-60
2022/11/07 04:29:40;;;;;;;;;;;;;;;16.62;48.09;101210.59;5043273;28;1049;-59
2022/11/07 04:32:05;;;;;;;;;;;;;;;17.73;48.67;101221.63;5057404;28;1136;-60
2022/11/07 04:34:31;;;;;;;;;;;;;;;16.97;49.30;101216.59;5056667;28;969;-61
2022/11/07 04:36:56;;;;;;;;;;;;;;;16.66;48.55;101219.13;5056639;28;2394;-60
2022/11/07 04:39:22;;;;;;;;;;;;;;;16.52;48.02;101211.34;5057020;28;1190;-61
2022/11/07 04:41:47;;;;;;;;;;;;;;;16.41;47.22;101215.91;5057050;28;1538;-59
2022/11/07 04:44:13;;;;;;;;;;;;;;;16.31;46.82;101207.56;5056984;28;1922;-60
2022/11/07 04:46:38;;;;;;;;;;;;;;;16.17;46.76;101211.84;5056757;28;1142;-59
2022/11/07 04:49:04;;;;;;;;;;;;;;;17.17;47.78;101219.47;5039476;28;1151;-59
2022/11/07 04:51:29;;;;;;;;;;;;;;;16.54;48.55;101220.13;5056903;28;1429;-60
2022/11/07 04:53:54;;;;;;;;;;;;;;;16.39;47.74;101225.50;5056855;28;1202;-58
2022/11/07 04:56:20;;;;;;;;;;;;;;;16.32;47.09;101225.72;5056867;28;1150;-59
2022/11/07 04:58:45;;;;;;;;;;;;;;;16.28;46.94;101229.25;5056329;28;1148;-57
2022/11/07 05:01:11;;;;;;;;;;;;;;;17.31;47.91;101225.31;5056440;28;1180;-61
2022/11/07 05:03:36;;;;;;;;;;;;;;;16.62;48.71;101224.31;5055942;28;1136;-59
2022/11/07 05:06:03;;;;;;;;;;;;;;;16.43;48.26;101224.69;5056535;28;1997;-60
2022/11/07 05:08:29;;;;;;;;;;;;;;;16.29;47.32;101230.91;5056273;28;1863;-59
2022/11/07 05:10:54;;;;;;;;;;;;;;;16.93;48.06;101224.56;5056514;28;1104;-58
2022/11/07 05:13:20;;;;;;;;;;;;;;;16.74;48.81;101222.19;5056489;28;1136;-59
2022/11/07 05:15:45;;;;;;;;;;;;;;;16.49;48.14;101231.06;5056556;28;1175;-60
2022/11/07 05:18:11;;;;;;;;;;;;;;;16.41;47.21;101229.63;5038730;28;1199;-60
2022/11/07 05:20:37;;;;;;;;;;;;;;;16.29;46.75;101226.22;5056099;28;1167;-60
2022/11/07 05:23:11;;;;;;;;;;;;;;;17.42;48.10;101235.28;5055834;28;1108;-59
2022/11/07 05:25:37;;;;;;;;;;;;;;;16.71;48.58;101238.38;5056058;28;1965;-59
2022/11/07 05:28:03;;;;;;;;;;;;;;;16.47;48.00;101238.75;5056422;28;1124;-60
2022/11/07 05:30:28;;;;;;;;;;;;;;;16.38;47.96;101248.53;5056456;28;1136;-60
2022/11/07 05:32:54;;;;;;;;;;;;;;;17.03;48.70;101241.09;5056348;28;1176;-60
2022/11/07 05:35:19;;;;;;;;;;;;;;;16.61;48.44;101250.13;5056261;28;1136;-60
2022/11/07 05:37:44;;;;;;;;;;;;;;;16.48;47.80;101245.06;5056286;28;2278;-60
2022/11/07 05:40:10;;;;;;;;;;;;;;;16.38;46.99;101257.63;5055876;28;1143;-59
2022/11/07 05:42:36;;;;;;;;;;;;;;;16.70;47.74;101262.25;5056092;28;1218;-58
2022/11/07 05:45:01;;;;;;;;;;;;;;;16.80;48.64;101250.53;5055135;28;1960;-58
2022/11/07 05:47:26;;;;;;;;;;;;;;;16.54;48.20;101264.06;5055972;28;1084;-60
2022/11/07 05:49:52;;;;;;;;;;;;;;;16.37;47.54;101266.13;5056693;28;1239;-60
2022/11/07 05:52:17;;;;;;;;;;;;;;;16.34;47.04;101278.44;5056138;28;1179;-61
2022/11/07 05:54:43;;;;;;;;;;;;;;;17.12;48.12;101271.66;5055288;28;1088;-62
2022/11/07 05:57:08;;;;;;;;;;;;;;;16.65;48.08;101278.72;5055651;28;1092;-59
2022/11/07 05:59:33;;;;;;;;;;;;;;;16.48;48.37;101280.75;5055597;28;1163;-59
2022/11/07 06:01:59;;;;;;;;;;;;;;;17.16;48.53;101288.44;5055672;28;1306;-58
2022/11/07 06:04:24;;;;;;;;;;;;;;;16.67;48.62;101290.25;5055753;28;1977;-59
2022/11/07 06:06:50;;;;;;;;;;;;;;;16.39;48.10;101281.22;5056029;28;1136;-58
2022/11/07 06:09:15;;;;;;;;;;;;;;;16.45;47.13;101284.81;5055425;28;2537;-59
2022/11/07 06:11:40;;;;;;;;;;;;;;;16.25;47.16;101288.22;5055456;28;1312;-60
2022/11/07 06:14:06;;;;;;;;;;;;;;;16.80;48.45;101294.47;5055896;28;1121;-59
2022/11/07 06:16:31;;;;;;;;;;;;;;;16.48;48.18;101297.22;5056123;28;1171;-59
2022/11/07 06:18:57;;;;;;;;;;;;;;;16.38;47.12;101290.56;5055771;28;1124;-60
2022/11/07 06:21:22;;;;;;;;;;;;;;;16.24;46.70;101303.00;5055450;28;1100;-59
2022/11/07 06:23:48;;;;;;;;;;;;;;;16.92;47.95;101302.56;5055591;28;1093;-60
2022/11/07 06:26:13;;;;;;;;;;;;;;;16.52;47.77;101290.97;5055352;28;1976;-59
2022/11/07 06:28:38;;;;;;;;;;;;;;;16.25;47.47;101286.28;5054681;28;2193;-59
2022/11/07 06:31:04;;;;;;;;;;;;;;;16.90;48.17;101296.50;5056082;28;1219;-59
2022/11/07 06:33:29;;;;;;;;;;;;;;;17.22;47.76;101296.47;5055715;28;1162;-59
2022/11/07 06:35:55;;;;;;;;;;;;;;;17.16;47.92;101303.00;5055338;28;1187;-59
2022/11/07 06:38:20;;;;;;;;;;;;;;;16.74;49.23;101299.09;5055964;28;1139;-59
2022/11/07 06:40:46;;;;;;;;;;;;;;;16.54;50.02;101305.25;5055853;28;1167;-59
2022/11/07 06:43:13;;;;;;;;;;;;;;;16.41;50.32;101311.13;5058119;28;1179;-59
2022/11/07 06:45:38;;;;;;;;;;;;;;;16.24;51.04;101314.00;5059525;28;1986;-60
2022/11/07 06:48:04;;;;;;;;;;;;;;;16.16;51.01;101317.19;5059671;28;1139;-59
2022/11/07 06:50:29;;;;;;;;;;;;;;;16.08;51.56;101316.56;5059407;28;1143;-60
2022/11/07 06:52:55;;;;;;;;;;;;;;;15.99;51.66;101309.91;5059597;28;1123;-60
2022/11/07 06:55:20;;;;;;;;;;;;;;;15.97;52.15;101308.50;5059611;28;1171;-59
2022/11/07 06:57:46;;;;;;;;;;;;;;;15.96;52.29;101310.38;5058406;28;1198;-59
2022/11/07 07:00:12;;;;;;;;;;;;;;;17.48;48.69;101318.59;5059247;28;1226;-60
2022/11/07 07:02:37;;;;;;;;;;;;;;;16.53;51.10;101314.56;5059219;28;1131;-59
2022/11/07 07:05:03;;;;;;;;;;;;;;;16.24;51.92;101316.72;5058953;28;1922;-60
2022/11/07 07:07:28;;;;;;;;;;;;;;;16.08;52.47;101313.81;5058622;28;1206;-57
2022/11/07 07:09:54;;;;;;;;;;;;;;;15.97;52.72;101316.72;5059076;28;1215;-59
2022/11/07 07:12:19;;;;;;;;;;;;;;;17.09;50.23;101322.47;5057956;28;1164;-60
2022/11/07 07:14:45;;;;;;;;;;;;;;;16.97;50.53;101319.09;5059110;28;1163;-57
2022/11/07 07:17:11;;;;;;;;;;;;;;;16.41;52.02;101328.44;5058565;28;1140;-58
2022/11/07 07:19:36;;;;;;;;;;;;;;;16.22;52.85;101319.75;5058924;28;1195;-59
2022/11/07 07:22:02;;;;;;;;;;;;;;;16.08;53.05;101324.78;5058280;28;1377;-58
2022/11/07 07:24:27;;;;;;;;;;;;;;;17.55;49.78;101318.38;5058686;28;1919;-59
2022/11/07 07:26:53;;;;;;;;;;;;;;;16.70;51.67;101316.34;5040350;28;1171;-60
2022/11/07 07:29:18;;;;;;;;;;;;;;;16.36;52.92;101320.16;5058560;28;1163;-61
2022/11/07 07:31:44;;;;;;;;;;;;;;;16.18;53.14;101313.09;5058452;28;1186;-58
2022/11/07 07:34:10;;;;;;;;;;;;;;;16.06;53.75;101316.00;5040044;28;1242;-58
2022/11/07 07:36:35;;;;;;;;;;;;;;;16.07;53.87;101320.41;5058381;28;1139;-58
2022/11/07 07:39:00;;;;;;;;;;;;;;;17.52;50.19;101321.66;5071243;28;1155;-57
2022/11/07 07:41:26;;;;;;;;;;;;;;;16.65;52.29;101321.78;5059181;28;1257;-59
2022/11/07 07:43:51;;;;;;;;;;;;;;;16.31;53.59;101313.78;5058480;28;1176;-60
2022/11/07 07:46:18;;;;;;;;;;;;;;;16.17;53.76;101322.44;5058074;28;1976;-59
2022/11/07 07:48:43;;;;;;;;;;;;;;;16.30;53.68;101323.09;5057226;28;1041;-58
2022/11/07 07:51:09;;;;;;;;;;;;;;;17.49;50.75;101327.66;5058216;28;1112;-59
2022/11/07 07:53:34;;;;;;;;;;;;;;;16.62;53.06;101320.44;5056962;28;1460;-59
2022/11/07 07:56:01;;;;;;;;;;;;;;;16.36;53.52;101330.31;5058407;28;1199;-60
2022/11/07 07:58:27;;;;;;;;;;;;;;;16.14;54.25;101322.13;5040049;28;1564;-59
2022/11/07 08:00:53;;;;;;;;;;;;;;;16.02;54.39;101320.34;5057959;28;1230;-59
2022/11/07 08:03:18;;;;;;;;;;;;;;;15.95;54.57;101325.19;5040208;28;1368;-59
2022/11/07 08:05:43;;;;;;;;;;;;;;;17.49;51.07;101325.75;5058221;28;1910;-58
2022/11/07 08:08:09;;;;;;;;;;;;;;;16.76;53.41;101334.56;5058069;28;1124;-57
2022/11/07 08:10:34;;;;;;;;;;;;;;;16.33;54.58;101336.34;5057899;28;1111;-58
2022/11/07 08:13:00;;;;;;;;;;;;;;;16.18;54.55;101339.72;5058104;28;1132;-57
2022/11/07 08:15:25;;;;;;;;;;;;;;;16.18;54.98;101339.72;5056674;28;1342;-59
2022/11/07 08:17:51;;;;;;;;;;;;;;;17.49;51.55;101338.66;5057917;28;1112;-59
2022/11/07 08:20:18;;;;;;;;;;;;;;;16.64;53.75;101337.44;5039591;28;1120;-59
2022/11/07 08:22:43;;;;;;;;;;;;;;;16.37;54.47;101342.97;5057377;28;1116;-59
2022/11/07 08:25:09;;;;;;;;;;;;;;;16.19;54.84;101335.91;5057581;28;1914;-59
2022/11/07 08:27:35;;;;;;;;;;;;;;;16.11;54.80;101333.63;5057223;28;1231;-58
2022/11/07 08:30:00;;;;;;;;;;;;;;;16.49;54.63;101342.78;5057470;28;1123;-60
2022/11/07 08:32:26;;;;;;;;;;;;;;;17.50;51.79;101338.41;5057676;28;1218;-60
2022/11/07 08:34:51;;;;;;;;;;;;;;;16.68;53.94;101333.09;5057163;28;857;-58
2022/11/07 08:37:17;;;;;;;;;;;;;;;16.36;54.62;101333.88;5057828;28;1100;-59
2022/11/07 08:39:42;;;;;;;;;;;;;;;16.26;55.04;101336.53;5057061;28;1187;-57
2022/11/07 08:42:08;;;;;;;;;;;;;;;16.10;55.20;101331.94;5056961;28;1198;-56
2022/11/07 08:44:35;;;;;;;;;;;;;;;16.03;55.45;101343.09;5057751;28;1906;-56
2022/11/07 08:47:01;;;;;;;;;;;;;;;17.50;52.40;101337.56;5057333;28;1156;-55
2022/11/07 08:49:26;;;;;;;;;;;;;;;16.85;54.03;101337.66;5057009;28;1119;-56
2022/11/07 08:51:52;;;;;;;;;;;;;;;16.46;54.72;101335.09;5056968;28;1203;-57
2022/11/07 08:54:17;;;;;;;;;;;;;;;16.26;55.06;101333.78;5057194;28;1144;-56
2022/11/07 08:56:42;;;;;;;;;;;;;;;16.19;55.28;101341.38;5056864;28;1215;-56
2022/11/07 08:59:09;;;;;;;;;;;;;;;16.05;55.57;101346.44;5056906;28;1117;-57
2022/11/07 09:01:35;;;;;;;;;;;;;;;16.86;54.52;101345.63;5056482;28;1077;-56
2022/11/07 09:04:00;;;;;;;;;;;;;;;17.28;53.08;101341.31;5056540;28;1116;-58
2022/11/07 09:06:26;;;;;;;;;;;;;;;16.56;55.06;101337.91;5056364;28;1976;-55
2022/11/07 09:08:51;;;;;;;;;;;;;;;16.38;55.26;101345.44;5056533;28;1199;-55
2022/11/07 09:11:17;;;;;;;;;;;;;;;16.22;55.51;101340.88;5056276;28;1171;-55
2022/11/07 09:13:43;;;;;;;;;;;;;;;16.07;55.68;101350.59;5056797;28;1211;-58
2022/11/07 09:16:09;;;;;;;;;;;;;;;17.60;52.95;101348.66;5056945;28;1195;-56
2022/11/07 09:18:34;;;;;;;;;;;;;;;16.80;54.52;101356.81;5056640;28;1211;-55
2022/11/07 09:20:59;;;;;;;;;;;;;;;16.43;55.44;101350.97;5056260;28;1152;-58
2022/11/07 09:23:25;;;;;;;;;;;;;;;16.24;55.60;101349.66;5056332;28;1246;-56
2022/11/07 09:25:50;;;;;;;;;;;;;;;16.17;55.63;101349.88;5056351;28;1906;-56
2022/11/07 09:28:16;;;;;;;;;;;;;;;16.06;55.58;101353.56;5056869;28;1188;-55
2022/11/07 09:30:41;;;;;;;;;;;;;;;16.14;55.49;101355.03;5038691;28;1152;-56
2022/11/07 09:33:07;;;;;;;;;;;;;;;17.60;52.79;101354.16;5056079;28;1187;-56
2022/11/07 09:35:32;;;;;;;;;;;;;;;16.76;54.98;101351.03;5056020;28;1175;-57
2022/11/07 09:37:57;;;;;;;;;;;;;;;16.54;55.75;101353.84;5056348;28;1164;-55
2022/11/07 09:40:26;;;;;;;;;;;;;;;16.31;55.83;101350.28;5056152;28;1152;-55
2022/11/07 09:42:54;;;;;;;;;;;;;;;16.12;56.26;101343.47;5056080;28;1116;-55
2022/11/07 09:45:20;;;;;;;;;;;;;;;17.47;53.66;101343.63;5056147;28;1985;-55
2022/11/07 09:48:04;;;;;;;;;;;;;;;16.83;54.99;101346.16;5038182;28;1195;-55
2022/11/07 09:50:37;;;;;;;;;;;;;;;16.47;55.67;101343.06;5038588;28;1204;-56
2022/11/07 09:53:07;;;;;;;;;;;;;;;16.29;55.88;101341.50;5056086;28;1147;-54
2022/11/07 09:55:33;;;;;;;;;;;;;;;16.16;55.63;101342.72;5056354;28;1191;-56
2022/11/07 09:58:06;;;;;;;;;;;;;;;16.13;55.88;101346.00;5038533;28;1198;-54
2022/11/07 10:00:31;;;;;;;;;;;;;;;17.63;53.26;101337.13;5037964;28;1170;-55
2022/11/07 10:02:57;;;;;;;;;;;;;;;16.89;55.20;101333.31;5055594;28;1144;-55
2022/11/07 10:05:33;;;;;;;;;;;;;;;16.57;55.92;101331.34;5056057;28;1901;-56
2022/11/07 10:08:00;;;;;;;;;;;;;;;16.49;55.83;101337.31;5038310;28;1117;-55
2022/11/07 10:10:26;;;;;;;;;;;;;;;16.28;56.00;101328.84;5038232;28;1473;-56
2022/11/07 10:12:54;;;;;;;;;;;;;;;16.16;56.02;101322.69;5055529;28;918;-56
2022/11/07 10:15:20;;;;;;;;;;;;;;;16.34;56.13;101324.25;5056334;28;1222;-51
2022/11/07 10:17:48;;;;;;;;;;;;;;;17.69;53.70;101318.72;5057972;28;1077;-55
2022/11/07 10:20:35;;;;;;;;;;;;;;;16.77;55.66;101325.19;5060126;28;1255;-56
2022/11/07 10:23:01;;;;;;;;;;;;;;;16.50;56.36;101317.00;5041724;28;1148;-54
2022/11/07 10:25:38;;;;;;;;;;;;;;;16.34;56.08;101322.34;5060149;28;1971;-58
2022/11/07 10:28:09;;;;;;;;;;;;;;;16.36;55.91;101320.16;5059813;28;1207;-56
2022/11/07 10:30:35;;;;;;;;;;;;;;;16.20;56.13;101310.09;5042369;28;1167;-57
2022/11/07 10:33:03;;;;;;;;;;;;;;;17.35;54.78;101306.16;5059500;28;1117;-55
2022/11/07 10:35:32;;;;;;;;;;;;;;;16.84;55.91;101300.28;5042194;28;1148;-56
2022/11/07 10:38:03;;;;;;;;;;;;;;;16.48;56.40;101297.22;5059513;28;1124;-57
2022/11/07 10:40:33;;;;;;;;;;;;;;;16.31;56.47;101303.63;5042011;28;1133;-56
2022/11/07 10:42:59;;;;;;;;;;;;;;;16.14;56.58;101295.50;5041754;28;1149;-55
2022/11/07 10:45:24;;;;;;;;;;;;;;;17.07;55.38;101291.69;5041907;28;1906;-56
2022/11/07 10:48:01;;;;;;;;;;;;;;;16.99;55.36;101277.63;5058911;28;1135;-55
2022/11/07 10:50:26;;;;;;;;;;;;;;;16.50;56.36;101292.31;5059278;28;1136;-55
2022/11/07 10:52:52;;;;;;;;;;;;;;;16.34;56.50;101289.41;5059537;28;1160;-53
2022/11/07 10:55:18;;;;;;;;;;;;;;;16.21;56.33;101287.06;5059057;28;1147;-55
2022/11/07 10:57:44;;;;;;;;;;;;;;;16.16;56.38;101287.00;5059431;28;1164;-55
2022/11/07 11:00:20;;;;;;;;;;;;;;;17.53;54.32;101282.88;5059080;28;1219;-55
2022/11/07 11:02:48;;;;;;;;;;;;;;;16.95;55.65;101277.31;5058928;28;1175;-55
2022/11/07 11:05:27;;;;;;;;;;;;;;;16.56;56.17;101281.13;5041021;28;1987;-56
2022/11/07 11:07:55;;;;;;;;;;;;;;;16.37;56.43;101277.09;5059142;28;1437;-56
2022/11/07 11:10:21;;;;;;;;;;;;;;;16.24;56.04;101273.66;5059122;28;1167;-56
2022/11/07 11:12:46;;;;;;;;;;;;;;;16.19;56.14;101272.78;5058697;28;1012;-57
2022/11/07 11:15:22;;;;;;;;;;;;;;;16.91;55.62;101266.03;5058458;28;1378;-57
2022/11/07 11:17:57;;;;;;;;;;;;;;;17.22;54.89;101270.88;5059257;28;1100;-58
2022/11/07 11:20:36;;;;;;;;;;;;;;;16.57;56.31;101269.03;5041090;28;1153;-56
2022/11/07 11:23:02;;;;;;;;;;;;;;;16.42;56.08;101264.25;5040666;28;1132;-55
2022/11/07 11:25:27;;;;;;;;;;;;;;;16.30;56.08;101255.34;5040684;28;1968;-56
2022/11/07 11:27:59;;;;;;;;;;;;;;;16.79;56.09;101257.13;5058036;28;1137;-57
2022/11/07 11:30:24;;;;;;;;;;;;;;;17.45;54.96;101256.72;5040723;28;1240;-57
2022/11/07 11:33:00;;;;;;;;;;;;;;;16.83;56.47;101260.16;5059177;28;1096;-55
2022/11/07 11:35:44;;;;;;;;;;;;;;;16.60;56.50;101259.44;5040876;28;1152;-58
2022/11/07 11:38:13;;;;;;;;;;;;;;;16.36;56.83;101245.25;5044547;28;1037;-56
2022/11/07 11:40:39;;;;;;;;;;;;;;;16.28;56.42;101252.00;5058688;28;1164;-57
2022/11/07 11:43:08;;;;;;;;;;;;;;;16.14;56.61;101253.53;5058056;28;1097;-59
2022/11/07 11:45:39;;;;;;;;;;;;;;;16.08;56.58;101258.13;5058011;28;1914;-55
2022/11/07 11:48:14;;;;;;;;;;;;;;;15.98;56.37;101252.56;5058477;28;1127;-55
2022/11/07 11:50:43;;;;;;;;;;;;;;;15.89;56.59;101250.25;5058447;28;1120;-56
2022/11/07 11:53:13;;;;;;;;;;;;;;;17.38;55.35;101247.88;5040390;28;1159;-55
2022/11/07 11:55:41;;;;;;;;;;;;;;;16.74;56.76;101248.84;5058173;28;1202;-55
2022/11/07 11:58:10;;;;;;;;;;;;;;;16.38;57.00;101252.13;5058340;28;1238;-56
2022/11/07 12:00:38;;;;;;;;;;;;;;;16.25;56.96;101247.06;5040088;28;1195;-56
2022/11/07 12:03:12;;;;;;;;;;;;;;;16.14;56.67;101246.13;5057762;28;1100;-57
2022/11/07 12:05:47;;;;;;;;;;;;;;;16.00;56.65;101240.22;5057974;28;1906;-56
2022/11/07 12:08:13;;;;;;;;;;;;;;;16.97;55.94;101247.69;5057710;28;1164;-56
2022/11/07 12:10:40;;;;;;;;;;;;;;;17.08;55.77;101246.63;5058111;28;1246;-57
2022/11/07 12:13:15;;;;;;;;;;;;;;;16.47;56.89;101232.44;5039926;28;879;-59
2022/11/07 12:15:50;;;;;;;;;;;;;;;16.44;56.79;101242.03;5057813;28;1115;-59
2022/11/07 12:18:21;;;;;;;;;;;;;;;16.24;56.99;101243.50;5057850;28;1116;-57
2022/11/07 12:20:50;;;;;;;;;;;;;;;16.13;56.68;101241.72;5057684;28;1147;-56
2022/11/07 12:23:16;;;;;;;;;;;;;;;16.02;56.78;101243.53;5057744;28;1108;-59
2022/11/07 12:25:45;;;;;;;;;;;;;;;17.34;55.33;101233.03;5057367;28;1970;-59
2022/11/07 12:28:29;;;;;;;;;;;;;;;16.86;56.24;101237.69;5039733;28;1136;-58
2022/11/07 12:31:16;;;;;;;;;;;;;;;16.40;56.93;101233.47;5057101;28;1136;-56
2022/11/07 12:33:50;;;;;;;;;;;;;;;16.24;56.81;101239.91;5057581;28;1136;-58
2022/11/07 12:36:44;;;;;;;;;;;;;;;17.06;56.29;101235.06;5039581;28;1243;-57
2022/11/07 12:39:19;;;;;;;;;;;;;;;17.07;55.99;101239.47;4982912;28;1176;-58
2022/11/07 12:41:51;;;;;;;;;;;;;;;16.57;56.94;101224.28;5056981;28;1108;-59
2022/11/07 12:44:27;;;;;;;;;;;;;;;16.55;56.65;101237.41;5039253;28;1223;-55
2022/11/07 12:46:52;;;;;;;;;;;;;;;16.39;56.73;101242.78;5039892;28;1211;-58
2022/11/07 12:49:30;;;;;;;;;;;;;;;16.22;56.60;101229.19;5056344;28;1088;-58
2022/11/07 12:51:55;;;;;;;;;;;;;;;16.77;56.86;101232.69;5044246;28;1128;-57
2022/11/07 12:54:35;;;;;;;;;;;;;;;17.24;55.76;101239.31;5056987;28;1219;-57
2022/11/07 12:57:07;;;;;;;;;;;;;;;16.62;57.08;101235.31;5039493;28;1117;-59
2022/11/07 12:59:32;;;;;;;;;;;;;;;16.51;56.95;101241.78;5039004;28;1159;-56